Time;durP1;ratioP1;P1;durP2;ratioP2;P2;SDS_P1;SDS_P2;PMS_P1;PMS_P2;Temp;Humidity;BMP_temperature;BMP_pressure;BME280_temperature;BME280_humidity;BME280_pressure;Samples;Min_cycle;Max_cycle;Signal;HPM_P1;HPM_P2
2021/12/01 00:00:30;;;;;;;39.83;22.88;;;;;;;;;;5053049;28;20033;-72
2021/12/01 00:02:56;;;;;;;37.83;22.15;;;;;;;;;;5055039;28;20020;-72
2021/12/01 00:05:22;;;;;;;48.53;25.95;;;;;;;;;;5054850;28;20444;-73
2021/12/01 00:07:48;;;;;;;21.20;11.75;;;;;;;;;;5056136;28;20452;-74
2021/12/01 00:10:14;;;;;;;26.10;16.23;;;;;;;;;;5054689;28;20107;-72
2021/12/01 00:12:39;;;;;;;15.13;8.18;;;;;;;;;;5052984;28;20107;-72
2021/12/01 00:15:05;;;;;;;35.25;18.75;;;;;;;;;;5055639;28;20035;-75
2021/12/01 00:17:31;;;;;;;29.15;14.38;;;;;;;;;;5053192;28;20087;-71
2021/12/01 00:19:56;;;;;;;13.52;7.85;;;;;;;;;;5054578;28;20060;-73
2021/12/01 00:22:21;;;;;;;7.18;5.55;;;;;;;;;;5053522;28;20032;-74
2021/12/01 00:24:47;;;;;;;7.40;4.90;;;;;;;;;;5055213;28;20435;-72
2021/12/01 00:27:12;;;;;;;7.95;5.53;;;;;;;;;;5053264;28;20105;-73
2021/12/01 00:29:38;;;;;;;11.40;4.90;;;;;;;;;;5053073;28;20025;-72
2021/12/01 00:32:03;;;;;;;5.57;4.05;;;;;;;;;;5053246;28;20085;-73
2021/12/01 00:34:29;;;;;;;3.08;2.40;;;;;;;;;;5054661;28;20086;-71
2021/12/01 00:36:54;;;;;;;7.28;4.13;;;;;;;;;;5054609;28;20096;-73
2021/12/01 00:39:19;;;;;;;3.70;2.85;;;;;;;;;;5054411;28;20048;-73
2021/12/01 00:41:47;;;;;;;3.78;2.90;;;;;;;;;;5054200;28;20529;-73
2021/12/01 00:44:13;;;;;;;3.95;3.35;;;;;;;;;;5056313;28;20020;-72
2021/12/01 00:46:41;;;;;;;6.43;4.20;;;;;;;;;;5057856;28;20027;-73
2021/12/01 00:49:07;;;;;;;7.40;3.80;;;;;;;;;;5057081;28;20406;-73
2021/12/01 00:51:33;;;;;;;3.28;2.97;;;;;;;;;;5058927;28;20024;-73
2021/12/01 00:53:58;;;;;;;4.50;2.70;;;;;;;;;;5058076;28;20075;-73
2021/12/01 00:56:24;;;;;;;4.32;3.35;;;;;;;;;;5070204;28;20025;-74
2021/12/01 00:58:50;;;;;;;8.10;5.18;;;;;;;;;;5076551;28;20120;-72
2021/12/01 01:01:16;;;;;;;2.95;2.35;;;;;;;;;;5078084;28;20077;-72
2021/12/01 01:03:41;;;;;;;4.18;2.80;;;;;;;;;;5078001;28;20553;-75
2021/12/01 01:06:06;;;;;;;7.65;3.83;;;;;;;;;;5078791;28;20511;-74
2021/12/01 01:08:32;;;;;;;5.97;3.70;;;;;;;;;;5078883;28;20611;-72
2021/12/01 01:11:09;;;;;;;5.28;3.90;;;;;;;;;;5077992;28;20028;-72
2021/12/01 01:16:23;;;;;;;5.95;4.07;;;;;;;;;;5077711;28;20131;-74
2021/12/01 01:18:52;;;;;;;11.13;4.28;;;;;;;;;;5077500;28;20028;-72
2021/12/01 01:21:17;;;;;;;9.00;4.15;;;;;;;;;;5078230;28;20028;-72
2021/12/01 01:23:43;;;;;;;6.68;3.83;;;;;;;;;;5077868;28;20023;-72
2021/12/01 01:26:09;;;;;;;6.57;3.70;;;;;;;;;;5077632;28;20024;-71
2021/12/01 01:28:35;;;;;;;6.18;4.13;;;;;;;;;;5075943;28;20031;-73
2021/12/01 01:31:01;;;;;;;7.40;4.38;;;;;;;;;;5077548;28;20028;-75
2021/12/01 01:33:26;;;;;;;6.07;4.07;;;;;;;;;;5077122;28;20383;-74
2021/12/01 01:35:52;;;;;;;4.95;3.53;;;;;;;;;;5077547;28;20031;-72
2021/12/01 01:38:18;;;;;;;5.93;4.40;;;;;;;;;;5077532;28;20479;-73
2021/12/01 01:40:43;;;;;;;3.85;3.25;;;;;;;;;;5076912;28;20024;-73
2021/12/01 01:43:09;;;;;;;8.73;4.38;;;;;;;;;;5075457;28;20024;-73
2021/12/01 01:45:34;;;;;;;4.65;3.40;;;;;;;;;;5077849;28;20095;-72
2021/12/01 01:48:03;;;;;;;3.85;3.45;;;;;;;;;;5075650;28;20024;-72
2021/12/01 01:50:38;;;;;;;4.57;3.40;;;;;;;;;;5078342;28;20028;-71
2021/12/01 01:53:05;;;;;;;4.63;3.03;;;;;;;;;;5077438;28;20028;-73
2021/12/01 01:55:31;;;;;;;4.95;3.55;;;;;;;;;;5076218;28;20031;-73
2021/12/01 01:57:56;;;;;;;6.63;3.60;;;;;;;;;;5075519;28;20024;-72
2021/12/01 02:00:22;;;;;;;4.88;3.53;;;;;;;;;;5076733;28;20031;-76
2021/12/01 02:02:48;;;;;;;6.78;4.07;;;;;;;;;;5075473;28;20024;-73
2021/12/01 02:05:13;;;;;;;6.03;4.43;;;;;;;;;;5075753;28;20070;-72
2021/12/01 02:07:38;;;;;;;7.53;4.05;;;;;;;;;;5076607;28;20379;-71
2021/12/01 02:10:04;;;;;;;6.13;3.65;;;;;;;;;;5076786;28;20028;-72
2021/12/01 02:12:30;;;;;;;5.95;3.90;;;;;;;;;;5076578;28;20425;-74
2021/12/01 02:14:55;;;;;;;10.57;5.05;;;;;;;;;;5076752;28;20031;-74
2021/12/01 02:17:21;;;;;;;4.78;3.55;;;;;;;;;;5075115;28;20388;-74
2021/12/01 02:19:46;;;;;;;5.90;4.32;;;;;;;;;;5076640;28;20028;-72
2021/12/01 02:22:12;;;;;;;6.25;3.80;;;;;;;;;;5074942;28;20035;-73
2021/12/01 02:24:37;;;;;;;9.55;5.00;;;;;;;;;;5076504;28;20072;-74
2021/12/01 02:27:02;;;;;;;9.07;5.13;;;;;;;;;;5077195;28;20039;-72
2021/12/01 02:29:28;;;;;;;9.48;4.50;;;;;;;;;;5074583;28;20057;-74
2021/12/01 02:31:54;;;;;;;6.10;3.75;;;;;;;;;;5075208;28;20451;-74
2021/12/01 02:34:21;;;;;;;6.82;4.35;;;;;;;;;;5074977;28;20125;-72
2021/12/01 02:36:48;;;;;;;5.72;3.38;;;;;;;;;;5075486;28;20066;-74
2021/12/01 02:39:15;;;;;;;8.15;4.05;;;;;;;;;;5076222;28;20028;-71
2021/12/01 02:41:41;;;;;;;6.28;3.83;;;;;;;;;;5076448;28;20031;-73
2021/12/01 02:44:07;;;;;;;5.88;3.50;;;;;;;;;;5074329;28;20108;-73
2021/12/01 02:46:34;;;;;;;6.13;3.75;;;;;;;;;;5076101;28;20058;-74
2021/12/01 02:49:00;;;;;;;4.75;3.22;;;;;;;;;;5074280;28;20047;-73
2021/12/01 02:51:28;;;;;;;5.05;3.30;;;;;;;;;;5076156;28;20027;-73
2021/12/01 02:53:54;;;;;;;5.20;3.33;;;;;;;;;;5076202;28;20024;-72
2021/12/01 02:56:21;;;;;;;4.65;3.30;;;;;;;;;;5075551;28;20031;-72
2021/12/01 02:58:46;;;;;;;8.05;4.10;;;;;;;;;;5076330;28;20032;-74
2021/12/01 03:01:17;;;;;;;5.10;3.88;;;;;;;;;;5075620;28;20493;-72
2021/12/01 03:03:43;;;;;;;5.53;3.38;;;;;;;;;;5074116;28;20502;-73
2021/12/01 03:06:09;;;;;;;8.65;4.35;;;;;;;;;;5076559;28;20106;-74
2021/12/01 03:08:35;;;;;;;6.30;3.85;;;;;;;;;;5076378;28;20510;-74
2021/12/01 03:11:00;;;;;;;9.25;4.15;;;;;;;;;;5075390;28;20077;-74
2021/12/01 03:13:26;;;;;;;4.78;3.42;;;;;;;;;;5076238;28;20036;-74
2021/12/01 03:15:51;;;;;;;8.90;6.00;;;;;;;;;;5074317;28;20463;-74
2021/12/01 03:18:17;;;;;;;8.65;4.65;;;;;;;;;;5075090;28;20482;-73
2021/12/01 03:20:43;;;;;;;5.53;3.67;;;;;;;;;;5076612;28;20038;-72
2021/12/01 03:23:08;;;;;;;8.80;5.30;;;;;;;;;;5075382;28;20445;-73
2021/12/01 03:25:34;;;;;;;10.95;4.65;;;;;;;;;;5075859;28;20024;-73
2021/12/01 03:27:59;;;;;;;7.55;4.22;;;;;;;;;;5075574;28;20069;-71
2021/12/01 03:30:25;;;;;;;9.98;6.22;;;;;;;;;;5076423;28;20020;-75
2021/12/01 03:32:50;;;;;;;14.20;8.18;;;;;;;;;;5073510;28;20028;-73
2021/12/01 03:35:16;;;;;;;12.10;6.90;;;;;;;;;;5074028;28;20455;-77
2021/12/01 03:37:43;;;;;;;5.90;3.72;;;;;;;;;;5075435;28;20023;-74
2021/12/01 03:40:08;;;;;;;7.78;4.60;;;;;;;;;;5076079;28;20028;-73
2021/12/01 03:42:34;;;;;;;14.48;5.55;;;;;;;;;;5075008;28;20034;-73
2021/12/01 03:44:59;;;;;;;6.20;4.13;;;;;;;;;;5074660;28;20017;-73
2021/12/01 03:47:26;;;;;;;8.13;3.75;;;;;;;;;;5075009;28;20028;-72
2021/12/01 03:49:51;;;;;;;6.13;3.17;;;;;;;;;;5075168;28;20088;-74
2021/12/01 03:52:17;;;;;;;10.95;6.68;;;;;;;;;;5074628;28;20032;-74
2021/12/01 03:54:46;;;;;;;16.52;9.98;;;;;;;;;;5075210;28;20038;-73
2021/12/01 03:57:11;;;;;;;15.27;7.18;;;;;;;;;;5073900;28;20035;-74
2021/12/01 03:59:37;;;;;;;8.80;5.13;;;;;;;;;;5074956;28;20028;-72
2021/12/01 04:02:03;;;;;;;26.98;11.68;;;;;;;;;;5074640;28;20115;-72
2021/12/01 04:04:28;;;;;;;12.90;6.28;;;;;;;;;;5073786;28;20038;-73
2021/12/01 04:06:53;;;;;;;13.63;7.70;;;;;;;;;;5073329;28;20109;-73
2021/12/01 04:09:19;;;;;;;12.55;6.53;;;;;;;;;;5075080;28;20028;-74
2021/12/01 04:11:44;;;;;;;13.95;8.32;;;;;;;;;;5075413;28;20456;-74
2021/12/01 04:14:10;;;;;;;17.55;10.77;;;;;;;;;;5073468;28;20451;-74
2021/12/01 04:16:35;;;;;;;35.42;16.75;;;;;;;;;;5072928;28;20414;-75
2021/12/01 04:19:00;;;;;;;20.85;10.32;;;;;;;;;;5075078;28;20032;-72
2021/12/01 04:21:27;;;;;;;7.25;4.45;;;;;;;;;;5079574;28;20042;-74
2021/12/01 04:23:53;;;;;;;5.95;3.90;;;;;;;;;;5078818;28;20383;-74
2021/12/01 04:26:22;;;;;;;8.90;4.20;;;;;;;;;;5076996;28;20024;-73
2021/12/01 04:28:48;;;;;;;45.30;17.52;;;;;;;;;;5079809;28;20024;-73
2021/12/01 04:31:13;;;;;;;36.65;14.77;;;;;;;;;;5079370;28;20504;-73
2021/12/01 04:33:38;;;;;;;19.90;7.63;;;;;;;;;;5078871;28;20020;-73
2021/12/01 04:36:04;;;;;;;13.52;5.10;;;;;;;;;;5078671;28;20026;-73
2021/12/01 04:38:29;;;;;;;16.98;6.20;;;;;;;;;;5078496;28;20063;-73
2021/12/01 04:40:55;;;;;;;9.85;5.28;;;;;;;;;;5078365;28;20028;-74
2021/12/01 04:43:20;;;;;;;11.70;6.05;;;;;;;;;;5078165;28;20020;-72
2021/12/01 04:45:48;;;;;;;7.97;4.57;;;;;;;;;;5077315;28;20027;-73
2021/12/01 04:48:13;;;;;;;4.28;2.70;;;;;;;;;;5077237;28;20776;-73
2021/12/01 04:50:39;;;;;;;3.72;2.83;;;;;;;;;;5076905;28;20356;-73
2021/12/01 04:53:04;;;;;;;6.05;3.05;;;;;;;;;;5078662;28;20501;-72
2021/12/01 04:55:29;;;;;;;3.75;2.90;;;;;;;;;;5079279;28;20028;-73
2021/12/01 04:57:55;;;;;;;4.10;2.97;;;;;;;;;;5077057;28;20024;-72
2021/12/01 05:00:23;;;;;;;5.32;2.63;;;;;;;;;;5076478;28;20036;-73
2021/12/01 05:02:48;;;;;;;4.70;2.60;;;;;;;;;;5076417;28;20433;-74
2021/12/01 05:05:14;;;;;;;4.40;3.10;;;;;;;;;;5076812;28;20024;-76
2021/12/01 05:07:39;;;;;;;5.40;3.40;;;;;;;;;;5077598;28;20423;-73
2021/12/01 05:10:06;;;;;;;4.53;2.85;;;;;;;;;;5078501;28;20051;-72
2021/12/01 05:12:31;;;;;;;9.45;4.53;;;;;;;;;;5077725;28;20443;-75
2021/12/01 05:14:56;;;;;;;11.63;6.03;;;;;;;;;;5078177;28;20028;-75
2021/12/01 05:17:22;;;;;;;6.07;3.47;;;;;;;;;;5076081;28;20157;-74
2021/12/01 05:19:48;;;;;;;19.60;8.57;;;;;;;;;;5076532;28;20051;-74
2021/12/01 05:22:13;;;;;;;38.83;17.77;;;;;;;;;;5078028;28;20043;-73
2021/12/01 05:24:39;;;;;;;41.05;16.65;;;;;;;;;;5077542;28;20023;-75
2021/12/01 05:27:04;;;;;;;19.40;8.52;;;;;;;;;;5076118;28;20028;-74
2021/12/01 05:29:30;;;;;;;27.55;13.15;;;;;;;;;;5076881;28;20038;-72
2021/12/01 05:31:56;;;;;;;31.85;13.85;;;;;;;;;;5076351;28;20024;-76
2021/12/01 05:34:22;;;;;;;23.13;10.77;;;;;;;;;;5078943;28;20024;-74
2021/12/01 05:36:47;;;;;;;11.30;5.57;;;;;;;;;;5075691;28;20456;-73
2021/12/01 05:39:12;;;;;;;61.13;42.30;;;;;;;;;;5078227;28;20024;-72
2021/12/01 05:41:38;;;;;;;31.92;19.55;;;;;;;;;;5076980;28;20028;-72
2021/12/01 05:44:03;;;;;;;63.55;33.47;;;;;;;;;;5076794;28;20023;-74
2021/12/01 05:46:29;;;;;;;51.95;25.83;;;;;;;;;;5077435;28;20791;-75
2021/12/01 05:48:54;;;;;;;27.85;14.40;;;;;;;;;;5076742;28;20019;-76
2021/12/01 05:51:20;;;;;;;20.35;11.23;;;;;;;;;;5076750;28;20016;-74
2021/12/01 05:53:46;;;;;;;36.65;22.38;;;;;;;;;;5076778;28;20065;-73
2021/12/01 05:56:11;;;;;;;31.25;19.77;;;;;;;;;;5076756;28;20027;-73
2021/12/01 05:58:37;;;;;;;21.90;15.95;;;;;;;;;;5075723;28;20603;-76
2021/12/01 06:01:02;;;;;;;10.20;7.13;;;;;;;;;;5075094;28;20030;-73
2021/12/01 06:03:28;;;;;;;5.70;4.22;;;;;;;;;;5066956;28;20012;-74
2021/12/01 06:05:53;;;;;;;12.80;7.45;;;;;;;;;;5062026;28;20507;-75
2021/12/01 06:08:19;;;;;;;6.85;5.00;;;;;;;;;;5057840;28;20032;-75
2021/12/01 06:10:45;;;;;;;36.20;19.55;;;;;;;;;;5057954;28;20029;-76
2021/12/01 06:13:13;;;;;;;22.40;13.90;;;;;;;;;;5056508;28;20104;-74
2021/12/01 06:15:38;;;;;;;16.42;9.93;;;;;;;;;;5056316;28;20055;-75
2021/12/01 06:18:04;;;;;;;22.33;13.43;;;;;;;;;;5056641;28;20020;-73
2021/12/01 06:20:30;;;;;;;9.48;6.72;;;;;;;;;;5056446;28;20029;-76
2021/12/01 06:22:55;;;;;;;22.45;12.52;;;;;;;;;;5055285;28;20035;-74
2021/12/01 06:25:20;;;;;;;36.20;18.38;;;;;;;;;;5071352;28;20020;-76
2021/12/01 06:27:46;;;;;;;34.33;14.60;;;;;;;;;;5074517;28;20023;-77
2021/12/01 06:30:11;;;;;;;41.58;18.65;;;;;;;;;;5076336;28;20919;-74
2021/12/01 06:32:37;;;;;;;24.75;12.48;;;;;;;;;;5074719;28;20467;-75
2021/12/01 06:35:03;;;;;;;25.38;11.77;;;;;;;;;;5075994;28;20035;-75
2021/12/01 06:37:28;;;;;;;46.72;18.58;;;;;;;;;;5075350;28;20106;-73
2021/12/01 06:39:53;;;;;;;21.20;10.07;;;;;;;;;;5076163;28;20027;-74
2021/12/01 06:42:19;;;;;;;17.75;10.48;;;;;;;;;;5075531;28;20020;-76
2021/12/01 06:44:44;;;;;;;9.65;5.78;;;;;;;;;;5074737;28;20405;-75
2021/12/01 06:47:10;;;;;;;4.95;3.22;;;;;;;;;;5074658;28;20447;-74
2021/12/01 06:49:35;;;;;;;6.72;4.38;;;;;;;;;;5076305;28;20020;-72
2021/12/01 06:52:01;;;;;;;8.35;5.68;;;;;;;;;;5076748;28;20073;-73
2021/12/01 06:54:26;;;;;;;24.08;7.20;;;;;;;;;;5074407;28;20076;-73
2021/12/01 06:56:51;;;;;;;9.57;4.65;;;;;;;;;;5076141;28;20012;-74
2021/12/01 06:59:17;;;;;;;17.88;8.38;;;;;;;;;;5075818;28;20040;-72
2021/12/01 07:01:42;;;;;;;21.15;9.68;;;;;;;;;;5075382;28;20012;-73
2021/12/01 07:04:08;;;;;;;31.92;11.98;;;;;;;;;;5074022;28;20060;-73
2021/12/01 07:06:33;;;;;;;28.60;13.50;;;;;;;;;;5072641;28;20032;-72
2021/12/01 07:09:01;;;;;;;15.90;6.50;;;;;;;;;;5073927;28;20027;-74
2021/12/01 07:11:27;;;;;;;39.30;19.52;;;;;;;;;;5074534;28;20028;-73
2021/12/01 07:13:53;;;;;;;91.35;43.72;;;;;;;;;;5074573;28;20076;-72
2021/12/01 07:16:18;;;;;;;24.05;11.57;;;;;;;;;;5074740;28;20044;-72
2021/12/01 07:18:44;;;;;;;17.80;5.97;;;;;;;;;;5076634;28;20046;-73
2021/12/01 07:21:11;;;;;;;39.85;16.90;;;;;;;;;;5074159;28;20071;-72
2021/12/01 07:23:36;;;;;;;33.45;17.52;;;;;;;;;;5073954;28;20059;-74
2021/12/01 07:26:02;;;;;;;29.67;16.13;;;;;;;;;;5075649;28;20120;-73
2021/12/01 07:28:27;;;;;;;29.60;14.25;;;;;;;;;;5076382;28;20063;-72
2021/12/01 07:30:52;;;;;;;19.73;10.55;;;;;;;;;;5075848;28;20035;-73
2021/12/01 07:33:18;;;;;;;13.95;8.45;;;;;;;;;;5075794;28;20027;-72
2021/12/01 07:35:43;;;;;;;12.90;7.00;;;;;;;;;;5073594;28;20035;-73
2021/12/01 07:38:08;;;;;;;5.72;4.53;;;;;;;;;;5075246;28;20027;-72
2021/12/01 07:40:34;;;;;;;8.95;6.53;;;;;;;;;;5075446;28;20102;-74
2021/12/01 07:42:59;;;;;;;14.23;9.35;;;;;;;;;;5073736;28;20019;-74
2021/12/01 07:45:24;;;;;;;11.30;6.60;;;;;;;;;;5075563;28;20992;-73
2021/12/01 07:47:50;;;;;;;4.85;3.20;;;;;;;;;;5073749;28;20575;-73
2021/12/01 07:50:15;;;;;;;6.13;4.43;;;;;;;;;;5075409;28;20063;-73
2021/12/01 07:52:40;;;;;;;75.28;26.48;;;;;;;;;;5073223;28;20024;-74
2021/12/01 07:55:06;;;;;;;99.95;61.75;;;;;;;;;;5075060;28;20167;-71
2021/12/01 07:57:32;;;;;;;22.58;17.50;;;;;;;;;;5075314;28;20053;-72
2021/12/01 07:59:57;;;;;;;20.02;17.95;;;;;;;;;;5073185;28;20081;-72
2021/12/01 08:02:22;;;;;;;13.25;10.40;;;;;;;;;;5075954;28;20020;-74
2021/12/01 08:04:48;;;;;;;12.00;7.10;;;;;;;;;;5074625;28;20567;-72
2021/12/01 08:07:13;;;;;;;11.35;5.05;;;;;;;;;;5076061;28;20367;-72
2021/12/01 08:09:39;;;;;;;18.45;9.95;;;;;;;;;;5075933;28;20043;-73
2021/12/01 08:12:07;;;;;;;16.48;8.93;;;;;;;;;;5075040;28;20031;-75
2021/12/01 08:14:32;;;;;;;10.90;6.32;;;;;;;;;;5075836;28;20110;-72
2021/12/01 08:16:58;;;;;;;7.32;4.35;;;;;;;;;;5074508;28;20143;-73
2021/12/01 08:19:23;;;;;;;5.50;3.90;;;;;;;;;;5074317;28;20067;-73
2021/12/01 08:21:50;;;;;;;27.35;13.55;;;;;;;;;;5075547;28;20024;-73
2021/12/01 08:24:16;;;;;;;24.02;8.15;;;;;;;;;;5075922;28;20028;-74
2021/12/01 08:26:43;;;;;;;13.43;8.32;;;;;;;;;;5075048;28;20032;-74
2021/12/01 08:29:09;;;;;;;14.15;4.57;;;;;;;;;;5075283;28;20024;-72
2021/12/01 08:31:34;;;;;;;38.47;11.82;;;;;;;;;;5075042;28;20024;-72
2021/12/01 08:33:59;;;;;;;39.08;19.80;;;;;;;;;;5074702;28;20619;-72
2021/12/01 08:36:25;;;;;;;259.90;108.03;;;;;;;;;;5074709;28;20035;-72
2021/12/01 08:38:51;;;;;;;17.90;9.50;;;;;;;;;;5074662;28;20082;-71
2021/12/01 08:41:16;;;;;;;45.85;21.75;;;;;;;;;;5074651;28;20591;-74
2021/12/01 08:43:42;;;;;;;39.47;20.85;;;;;;;;;;5072862;28;20043;-74
2021/12/01 08:46:07;;;;;;;53.42;27.77;;;;;;;;;;5073811;28;20146;-73
2021/12/01 08:48:33;;;;;;;18.58;10.63;;;;;;;;;;5058338;28;20170;-74
2021/12/01 08:51:01;;;;;;;57.72;34.33;;;;;;;;;;5057496;28;20036;-75
2021/12/01 08:53:28;;;;;;;35.50;22.88;;;;;;;;;;5069154;28;20028;-74
2021/12/01 08:55:53;;;;;;;13.02;10.48;;;;;;;;;;5071311;28;20964;-73
2021/12/01 08:58:19;;;;;;;10.38;8.68;;;;;;;;;;5073999;28;20024;-74
2021/12/01 09:00:45;;;;;;;5.38;4.28;;;;;;;;;;5073939;28;20551;-71
2021/12/01 09:03:12;;;;;;;15.65;9.43;;;;;;;;;;5074549;28;20016;-72
2021/12/01 09:05:38;;;;;;;5.65;5.07;;;;;;;;;;5076978;28;20031;-74
2021/12/01 09:08:03;;;;;;;9.35;7.60;;;;;;;;;;5076281;28;20020;-73
2021/12/01 09:10:29;;;;;;;11.65;7.97;;;;;;;;;;5075596;28;20116;-73
2021/12/01 09:12:54;;;;;;;8.48;5.90;;;;;;;;;;5077904;28;20012;-72
2021/12/01 09:15:19;;;;;;;7.70;4.28;;;;;;;;;;5078770;28;20411;-75
2021/12/01 09:17:45;;;;;;;4.68;3.25;;;;;;;;;;5078409;28;20052;-74
2021/12/01 09:20:11;;;;;;;12.98;8.10;;;;;;;;;;5078108;28;20048;-73
2021/12/01 09:22:37;;;;;;;8.57;5.90;;;;;;;;;;5077269;28;20055;-74
2021/12/01 09:25:03;;;;;;;10.55;4.15;;;;;;;;;;5076249;28;20031;-73
2021/12/01 09:27:29;;;;;;;6.10;4.07;;;;;;;;;;5078617;28;20183;-73
2021/12/01 09:29:54;;;;;;;8.50;6.25;;;;;;;;;;5077849;28;20529;-74
2021/12/01 09:32:19;;;;;;;5.32;3.70;;;;;;;;;;5078552;28;20532;-74
2021/12/01 09:34:45;;;;;;;23.50;13.88;;;;;;;;;;5076066;28;20430;-73
2021/12/01 09:37:10;;;;;;;20.52;9.48;;;;;;;;;;5077637;28;20031;-73
2021/12/01 09:39:36;;;;;;;3.40;1.90;;;;;;;;;;5077602;28;20034;-74
2021/12/01 09:42:02;;;;;;;5.60;3.90;;;;;;;;;;5078538;28;20028;-73
2021/12/01 09:44:28;;;;;;;6.68;4.50;;;;;;;;;;5077221;28;20107;-73
2021/12/01 09:46:54;;;;;;;31.25;18.83;;;;;;;;;;5077482;28;20085;-73
2021/12/01 09:49:19;;;;;;;15.38;6.15;;;;;;;;;;5075968;28;20024;-74
2021/12/01 09:51:45;;;;;;;32.35;17.60;;;;;;;;;;5076320;28;20038;-73
2021/12/01 09:54:10;;;;;;;21.58;13.00;;;;;;;;;;5075952;28;20463;-73
2021/12/01 09:56:35;;;;;;;15.32;5.45;;;;;;;;;;5077058;28;20047;-74
2021/12/01 09:59:01;;;;;;;4.53;3.13;;;;;;;;;;5078288;28;20119;-76
2021/12/01 10:01:27;;;;;;;13.95;7.78;;;;;;;;;;5077245;28;20028;-73
2021/12/01 10:03:53;;;;;;;5.60;3.22;;;;;;;;;;5076657;28;20020;-75
2021/12/01 10:06:19;;;;;;;7.72;4.97;;;;;;;;;;5077488;28;20024;-75
2021/12/01 10:08:44;;;;;;;14.90;8.57;;;;;;;;;;5077015;28;20079;-73
2021/12/01 10:11:14;;;;;;;7.60;4.50;;;;;;;;;;5076416;28;20044;-73
2021/12/01 10:13:42;;;;;;;17.63;10.13;;;;;;;;;;5077543;28;20020;-74
2021/12/01 10:16:09;;;;;;;7.22;4.40;;;;;;;;;;5075931;28;20055;-75
2021/12/01 10:18:37;;;;;;;10.88;8.73;;;;;;;;;;5076322;28;20417;-74
2021/12/01 10:21:08;;;;;;;10.80;7.72;;;;;;;;;;5077049;28;20032;-75
2021/12/01 10:23:35;;;;;;;16.58;11.15;;;;;;;;;;5075382;28;20528;-74
2021/12/01 10:26:12;;;;;;;14.95;7.85;;;;;;;;;;5076490;28;20451;-73
2021/12/01 10:28:39;;;;;;;10.02;6.20;;;;;;;;;;5076456;28;20032;-74
2021/12/01 10:31:05;;;;;;;14.43;9.30;;;;;;;;;;5075248;28;20213;-75
2021/12/01 10:33:30;;;;;;;14.82;8.48;;;;;;;;;;5077333;28;20034;-76
2021/12/01 10:36:03;;;;;;;14.18;8.05;;;;;;;;;;5076387;28;20028;-73
2021/12/01 10:38:30;;;;;;;16.92;8.98;;;;;;;;;;5076056;28;20093;-76
2021/12/01 10:41:06;;;;;;;28.88;13.57;;;;;;;;;;5076339;28;20024;-76
2021/12/01 10:43:35;;;;;;;25.27;15.82;;;;;;;;;;5077135;28;20174;-75
2021/12/01 10:46:06;;;;;;;30.58;17.25;;;;;;;;;;5076586;28;20467;-74
2021/12/01 10:48:31;;;;;;;26.67;15.52;;;;;;;;;;5074874;28;20032;-74
2021/12/01 10:50:56;;;;;;;20.38;12.70;;;;;;;;;;5075875;28;20470;-76
2021/12/01 10:53:23;;;;;;;7.95;5.43;;;;;;;;;;5075424;28;20024;-73
2021/12/01 10:55:53;;;;;;;10.02;7.13;;;;;;;;;;5076125;28;20020;-76
2021/12/01 10:58:18;;;;;;;;;;;;;;;;;;5076572;28;20020;-75
2021/12/01 11:00:45;;;;;;;24.83;18.63;;;;;;;;;;5074545;28;19912;-74
2021/12/01 11:03:10;;;;;;;19.70;13.95;;;;;;;;;;5074731;28;20758;-75
2021/12/01 11:05:36;;;;;;;11.40;7.60;;;;;;;;;;5075948;28;20024;-76
2021/12/01 11:08:29;;;;;;;19.27;12.55;;;;;;;;;;5076439;28;20799;-75
2021/12/01 11:10:55;;;;;;;15.90;11.32;;;;;;;;;;5074075;28;20455;-74
2021/12/01 11:13:21;;;;;;;13.85;7.65;;;;;;;;;;5075884;28;20639;-73
2021/12/01 11:15:54;;;;;;;9.57;7.10;;;;;;;;;;5076551;28;20608;-74
2021/12/01 11:18:21;;;;;;;8.38;5.80;;;;;;;;;;5075404;28;20032;-72
2021/12/01 11:20:50;;;;;;;4.18;3.20;;;;;;;;;;5075912;28;20035;-76
2021/12/01 11:23:15;;;;;;;9.32;5.78;;;;;;;;;;5075798;28;20016;-76
2021/12/01 11:25:42;;;;;;;14.48;7.85;;;;;;;;;;5076172;28;20050;-73
2021/12/01 11:28:08;;;;;;;16.30;8.52;;;;;;;;;;5075536;28;20085;-74
2021/12/01 11:30:34;;;;;;;24.20;8.25;;;;;;;;;;5076106;28;20020;-75
2021/12/01 11:33:00;;;;;;;17.75;10.20;;;;;;;;;;5073676;28;20456;-74
2021/12/01 11:35:26;;;;;;;16.85;7.90;;;;;;;;;;5076116;28;20120;-74
2021/12/01 11:37:55;;;;;;;7.00;4.47;;;;;;;;;;5075115;28;20039;-75
2021/12/01 11:40:20;;;;;;;6.55;5.85;;;;;;;;;;5075564;28;20075;-74
2021/12/01 11:42:46;;;;;;;4.40;3.70;;;;;;;;;;5073964;28;20036;-74
2021/12/01 11:45:12;;;;;;;6.15;3.72;;;;;;;;;;5076380;28;20479;-74
2021/12/01 11:47:37;;;;;;;6.25;4.85;;;;;;;;;;5075112;28;20927;-77
2021/12/01 11:50:04;;;;;;;6.57;3.72;;;;;;;;;;5074992;28;20031;-74
2021/12/01 11:52:37;;;;;;;5.25;3.53;;;;;;;;;;5076510;28;20024;-75
2021/12/01 11:55:02;;;;;;;8.13;4.80;;;;;;;;;;5074904;28;20024;-75
2021/12/01 11:57:37;;;;;;;8.25;5.70;;;;;;;;;;5075233;28;20035;-74
2021/12/01 12:00:03;;;;;;;6.75;4.75;;;;;;;;;;5074901;28;20028;-74
2021/12/01 12:02:28;;;;;;;9.90;5.18;;;;;;;;;;5076893;28;20059;-73
2021/12/01 12:04:55;;;;;;;7.32;4.50;;;;;;;;;;5074887;28;20108;-75
2021/12/01 12:07:26;;;;;;;7.53;6.25;;;;;;;;;;5075570;28;20474;-74
2021/12/01 12:10:15;;;;;;;21.02;10.75;;;;;;;;;;5075085;28;20024;-75
2021/12/01 12:12:41;;;;;;;;;;;;;;;;;;5066594;28;20039;-74
2021/12/01 12:15:06;;;;;;;8.40;3.80;;;;;;;;;;5076186;28;19908;-74
2021/12/01 12:17:35;;;;;;;16.77;4.97;;;;;;;;;;5073866;28;20566;-74
2021/12/01 12:20:06;;;;;;;5.88;3.65;;;;;;;;;;5075185;28;20464;-74
2021/12/01 12:22:38;;;;;;;9.20;5.40;;;;;;;;;;5073561;28;20058;-73
2021/12/01 12:25:05;;;;;;;11.48;6.88;;;;;;;;;;5074618;28;20092;-73
2021/12/01 12:27:32;;;;;;;5.57;3.03;;;;;;;;;;5075780;28;20024;-75
2021/12/01 12:29:59;;;;;;;5.90;3.60;;;;;;;;;;5074233;28;20039;-74
2021/12/01 12:32:29;;;;;;;9.45;5.03;;;;;;;;;;5075484;28;20379;-74
2021/12/01 12:34:55;;;;;;;13.88;6.00;;;;;;;;;;5076749;28;20020;-72
2021/12/01 12:37:22;;;;;;;6.05;4.68;;;;;;;;;;5075105;28;20031;-74
2021/12/01 12:39:47;;;;;;;12.00;7.40;;;;;;;;;;5075825;28;20035;-75
2021/12/01 12:42:13;;;;;;;25.33;13.63;;;;;;;;;;5078470;28;21009;-74
2021/12/01 12:44:44;;;;;;;17.35;9.05;;;;;;;;;;5078389;28;20078;-75
2021/12/01 12:47:14;;;;;;;13.80;8.32;;;;;;;;;;5077044;28;20470;-73
2021/12/01 12:49:44;;;;;;;20.95;12.07;;;;;;;;;;5079606;28;20065;-74
2021/12/01 12:52:25;;;;;;;14.45;9.05;;;;;;;;;;5077044;28;20033;-73
2021/12/01 12:55:01;;;;;;;49.33;30.15;;;;;;;;;;5078224;28;20512;-74
2021/12/01 12:57:46;;;;;;;38.05;22.30;;;;;;;;;;5079289;28;20104;-73
2021/12/01 13:00:18;;;;;;;25.25;16.98;;;;;;;;;;5079168;28;20032;-73
2021/12/01 13:02:43;;;;;;;65.68;37.00;;;;;;;;;;5074100;28;20025;-73
2021/12/01 13:05:10;;;;;;;31.90;18.95;;;;;;;;;;5068224;28;20030;-75
2021/12/01 13:07:38;;;;;;;34.60;22.95;;;;;;;;;;5064819;28;20032;-76
2021/12/01 13:10:20;;;;;;;35.03;19.98;;;;;;;;;;5077252;28;20498;-74
2021/12/01 13:12:52;;;;;;;133.48;66.25;;;;;;;;;;5064745;28;20079;-73
2021/12/01 13:15:18;;;;;;;55.22;30.80;;;;;;;;;;5068718;28;20127;-72
2021/12/01 13:17:51;;;;;;;40.15;18.92;;;;;;;;;;5063031;28;20095;-76
2021/12/01 13:20:18;;;;;;;44.85;22.67;;;;;;;;;;5057718;28;20025;-73
2021/12/01 13:22:58;;;;;;;44.17;21.80;;;;;;;;;;5059073;28;20016;-75
2021/12/01 13:25:23;;;;;;;58.28;29.92;;;;;;;;;;5057946;28;20032;-75
2021/12/01 13:27:48;;;;;;;76.22;37.22;;;;;;;;;;5057787;28;20029;-75
2021/12/01 13:30:14;;;;;;;59.90;36.72;;;;;;;;;;5063279;28;20026;-74
2021/12/01 13:32:39;;;;;;;12.52;8.02;;;;;;;;;;5077093;28;20031;-75
2021/12/01 13:35:05;;;;;;;77.72;36.95;;;;;;;;;;5079848;28;20016;-74
2021/12/01 13:37:30;;;;;;;172.75;77.20;;;;;;;;;;5078772;28;20443;-75
2021/12/01 13:39:55;;;;;;;34.55;16.17;;;;;;;;;;5075845;28;20546;-75
2021/12/01 13:42:23;;;;;;;8.82;6.22;;;;;;;;;;5077766;28;20085;-75
2021/12/01 13:44:49;;;;;;;17.70;11.65;;;;;;;;;;5072642;28;20024;-75
2021/12/01 13:47:19;;;;;;;11.65;9.23;;;;;;;;;;5068333;28;20489;-77
2021/12/01 13:49:49;;;;;;;13.38;8.20;;;;;;;;;;5066271;28;20454;-76
2021/12/01 13:52:24;;;;;;;20.80;11.10;;;;;;;;;;5064518;28;20020;-76
2021/12/01 13:54:49;;;;;;;19.27;10.02;;;;;;;;;;5065001;28;20017;-76
2021/12/01 13:57:14;;;;;;;8.15;4.13;;;;;;;;;;5065806;28;20031;-75
2021/12/01 13:59:50;;;;;;;9.15;4.65;;;;;;;;;;5062789;28;20025;-75
2021/12/01 14:02:23;;;;;;;9.38;4.20;;;;;;;;;;5065562;28;20020;-76
2021/12/01 14:04:49;;;;;;;8.43;5.60;;;;;;;;;;5064076;28;20055;-75
2021/12/01 14:07:15;;;;;;;44.83;15.88;;;;;;;;;;5065537;28;20039;-76
2021/12/01 14:09:40;;;;;;;13.10;6.30;;;;;;;;;;5066584;28;20016;-76
2021/12/01 14:12:26;;;;;;;20.00;12.98;;;;;;;;;;5067307;28;20017;-75
2021/12/01 14:14:51;;;;;;;19.88;12.77;;;;;;;;;;5066738;28;20032;-76
2021/12/01 14:17:17;;;;;;;16.63;9.32;;;;;;;;;;5063335;28;20051;-76
2021/12/01 14:19:43;;;;;;;9.55;5.55;;;;;;;;;;5065599;28;20600;-76
2021/12/01 14:22:12;;;;;;;78.60;34.00;;;;;;;;;;5064308;28;20482;-76
2021/12/01 14:24:37;;;;;;;11.60;8.05;;;;;;;;;;5060515;28;20036;-76
2021/12/01 14:27:07;;;;;;;12.95;8.07;;;;;;;;;;5060832;28;20039;-77
2021/12/01 14:29:34;;;;;;;19.40;8.82;;;;;;;;;;5058431;28;20483;-77
2021/12/01 14:32:01;;;;;;;20.05;12.85;;;;;;;;;;5055649;28;20194;-77